createdAt,value
2017-12-20T00:00:13.858Z,-4.75
2017-12-20T00:01:13.855Z,-4.75
2017-12-20T00:02:13.858Z,-4.97
2017-12-20T00:03:13.860Z,-4.92
2017-12-20T00:04:13.867Z,-4.93
2017-12-20T00:05:13.869Z,-4.89
2017-12-20T00:06:13.868Z,-4.90
2017-12-20T00:07:13.871Z,-4.97
2017-12-20T00:08:13.876Z,-5.03
2017-12-20T00:09:13.880Z,-5.08
2017-12-20T00:10:13.882Z,-5.13
2017-12-20T00:11:13.885Z,-4.96
2017-12-20T00:12:13.882Z,-5.00
2017-12-20T00:13:13.888Z,-4.99
2017-12-20T00:14:13.892Z,-4.99
2017-12-20T00:15:13.888Z,-4.92
2017-12-20T00:16:13.898Z,-4.87
2017-12-20T00:17:13.900Z,-4.83
2017-12-20T00:18:13.901Z,-4.78
2017-12-20T00:19:13.904Z,-4.72
2017-12-20T00:20:13.898Z,-4.65
2017-12-20T00:21:13.907Z,-4.68
2017-12-20T00:22:13.911Z,-4.63
2017-12-20T00:23:13.911Z,-4.54
2017-12-20T00:24:13.913Z,-4.63
2017-12-20T00:25:13.910Z,-4.46
2017-12-20T00:26:13.913Z,-4.36
2017-12-20T00:27:13.915Z,-4.38
2017-12-20T00:28:13.923Z,-4.32
2017-12-20T00:29:13.924Z,-4.33
2017-12-20T00:30:13.921Z,-4.35
2017-12-20T00:31:13.927Z,-4.42
2017-12-20T00:32:13.925Z,-4.50
2017-12-20T00:33:13.932Z,-4.42
2017-12-20T00:34:13.929Z,-4.40
2017-12-20T00:35:13.931Z,-4.29
2017-12-20T00:36:13.934Z,-4.30
2017-12-20T00:37:13.937Z,-4.24
2017-12-20T00:38:13.944Z,-4.35
2017-12-20T00:39:13.946Z,-4.43
2017-12-20T00:40:13.942Z,-4.69
2017-12-20T00:41:13.950Z,-4.60
2017-12-20T00:42:13.948Z,-4.68
2017-12-20T00:43:13.947Z,-4.67
2017-12-20T00:44:13.951Z,-4.77
2017-12-20T00:45:13.955Z,-4.85
2017-12-20T00:46:13.955Z,-4.78
2017-12-20T00:47:13.958Z,-4.83
2017-12-20T00:48:13.961Z,-4.78
2017-12-20T00:49:13.967Z,-4.86
2017-12-20T00:50:13.967Z,-4.78
2017-12-20T00:51:13.965Z,-4.72
2017-12-20T00:52:13.969Z,-4.72
2017-12-20T00:53:13.976Z,-4.85
2017-12-20T00:54:13.977Z,-4.87
2017-12-20T00:55:13.981Z,-4.83
2017-12-20T00:56:13.978Z,-4.83
2017-12-20T00:57:13.979Z,-4.77
2017-12-20T00:58:13.980Z,-4.85
2017-12-20T00:59:13.988Z,-4.86
2017-12-20T01:00:13.983Z,-4.93
2017-12-20T01:01:13.987Z,-4.96
2017-12-20T01:02:13.988Z,-4.87
2017-12-20T01:03:13.989Z,-4.90
2017-12-20T01:04:13.996Z,-4.99
2017-12-20T01:05:13.998Z,-4.87
2017-12-20T01:06:14.003Z,-4.79
2017-12-20T01:07:14.003Z,-4.72
2017-12-20T01:08:13.999Z,-4.67
2017-12-20T01:09:14.007Z,-4.74
2017-12-20T01:10:14.010Z,-4.83
2017-12-20T01:11:14.006Z,-4.83
2017-12-20T01:12:14.012Z,-4.75
2017-12-20T01:13:14.008Z,-4.75
2017-12-20T01:14:14.017Z,-4.77
2017-12-20T01:15:14.014Z,-4.68
2017-12-20T01:16:14.019Z,-4.61
2017-12-20T01:17:14.016Z,-4.47
2017-12-20T01:18:14.024Z,-4.49
2017-12-20T01:19:14.026Z,-4.53
2017-12-20T01:20:14.023Z,-4.56
2017-12-20T01:21:14.025Z,-4.47
2017-12-20T01:22:14.026Z,-4.51
2017-12-20T01:23:14.028Z,-4.58
2017-12-20T01:24:14.027Z,-4.58
2017-12-20T01:25:14.031Z,-4.57
2017-12-20T01:26:14.039Z,-4.58
2017-12-20T01:27:14.040Z,-4.54
2017-12-20T01:28:14.036Z,-4.63
2017-12-20T01:29:14.043Z,-4.65
2017-12-20T01:30:14.040Z,-4.58
2017-12-20T01:31:14.041Z,-4.63
2017-12-20T01:32:14.050Z,-4.63
2017-12-20T01:33:14.052Z,-4.61
2017-12-20T01:34:14.053Z,-4.53
2017-12-20T01:35:14.056Z,-4.56
2017-12-20T01:36:14.058Z,-4.53
2017-12-20T01:37:14.059Z,-4.51
2017-12-20T01:38:14.057Z,-4.47
2017-12-20T01:39:14.057Z,-4.43
2017-12-20T01:40:14.063Z,-4.46
2017-12-20T01:41:14.061Z,-4.46
2017-12-20T01:42:14.063Z,-4.54
2017-12-20T01:43:14.071Z,-4.65
2017-12-20T01:44:14.067Z,-4.46
2017-12-20T01:45:14.068Z,-4.24
2017-12-20T01:46:14.077Z,-4.03
2017-12-20T01:47:14.072Z,-4.15
2017-12-20T01:48:14.073Z,-4.39
2017-12-20T01:49:14.082Z,-4.67
2017-12-20T01:50:14.083Z,-4.86
2017-12-20T01:51:14.080Z,-4.97
2017-12-20T01:52:14.082Z,-5.00
2017-12-20T01:53:14.094Z,-5.11
2017-12-20T01:54:14.096Z,-4.99
2017-12-20T01:55:14.085Z,-4.97
2017-12-20T01:56:14.093Z,-4.99
2017-12-20T01:57:14.090Z,-5.14
2017-12-20T01:58:14.094Z,-5.17
2017-12-20T01:59:14.100Z,-5.11
2017-12-20T02:00:14.095Z,-5.00
2017-12-20T02:01:14.102Z,-4.95
2017-12-20T02:02:14.101Z,-4.90
2017-12-20T02:03:14.100Z,-4.96
2017-12-20T02:04:14.103Z,-5.04
2017-12-20T02:05:14.103Z,-5.07
2017-12-20T02:06:14.107Z,-5.17
2017-12-20T02:07:14.112Z,-5.22
2017-12-20T02:08:14.115Z,-5.23
2017-12-20T02:09:14.111Z,-5.35
2017-12-20T02:10:14.111Z,-5.25
2017-12-20T02:11:14.114Z,-5.35
2017-12-20T02:12:14.120Z,-5.27
2017-12-20T02:13:14.120Z,-5.32
2017-12-20T02:14:14.117Z,-5.25
2017-12-20T02:15:14.126Z,-5.19
2017-12-20T02:16:14.120Z,-5.14
2017-12-20T02:17:14.122Z,-5.25
2017-12-20T02:18:14.124Z,-5.27
2017-12-20T02:19:14.132Z,-5.27
2017-12-20T02:20:14.128Z,-5.33
2017-12-20T02:21:14.128Z,-5.18
2017-12-20T02:22:14.131Z,-5.19
2017-12-20T02:23:14.136Z,-5.25
2017-12-20T02:24:14.143Z,-5.22
2017-12-20T02:25:14.135Z,-5.19
2017-12-20T02:26:14.142Z,-5.14
2017-12-20T02:27:14.140Z,-5.19
2017-12-20T02:28:14.139Z,-5.14
2017-12-20T02:29:14.148Z,-5.18
2017-12-20T02:30:14.154Z,-5.23
2017-12-20T02:31:14.145Z,-5.29
2017-12-20T02:32:14.148Z,-5.44
2017-12-20T02:33:14.151Z,-5.44
2017-12-20T02:34:14.151Z,-5.43
2017-12-20T02:35:14.159Z,-5.22
2017-12-20T02:36:14.154Z,-5.13
2017-12-20T02:37:14.156Z,-5.06
2017-12-20T02:38:14.170Z,-5.13
2017-12-20T02:39:14.161Z,-5.14
2017-12-20T02:40:14.160Z,-5.08
2017-12-20T02:41:14.162Z,-5.17
2017-12-20T02:42:14.171Z,-5.07
2017-12-20T02:43:14.167Z,-5.19
2017-12-20T02:44:14.172Z,-5.10
2017-12-20T02:45:14.169Z,-5.18
2017-12-20T02:46:14.178Z,-5.07
2017-12-20T02:47:14.186Z,-5.11
2017-12-20T02:48:14.173Z,-5.18
2017-12-20T02:49:14.181Z,-5.18
2017-12-20T02:50:14.178Z,-5.08
2017-12-20T02:51:14.185Z,-5.19
2017-12-20T02:52:14.187Z,-5.23
2017-12-20T02:53:14.189Z,-5.07
2017-12-20T02:54:14.193Z,-5.08
2017-12-20T02:55:14.192Z,-4.97
2017-12-20T02:56:14.188Z,-5.03
2017-12-20T02:57:14.192Z,-5.22
2017-12-20T02:58:14.197Z,-5.08
2017-12-20T02:59:14.192Z,-5.17
2017-12-20T03:00:14.193Z,-5.08
2017-12-20T03:01:14.198Z,-5.03
2017-12-20T03:02:14.204Z,-5.06
2017-12-20T03:03:14.207Z,-5.17
2017-12-20T03:04:14.201Z,-5.23
2017-12-20T03:05:14.204Z,-5.36
2017-12-20T03:06:14.211Z,-5.33
2017-12-20T03:07:14.213Z,-5.23
2017-12-20T03:08:14.214Z,-5.17
2017-12-20T03:09:14.223Z,-5.13
2017-12-20T03:10:14.218Z,-5.08
2017-12-20T03:11:14.220Z,-5.14
2017-12-20T03:12:14.216Z,-5.14
2017-12-20T03:13:14.221Z,-5.13
2017-12-20T03:14:14.218Z,-5.14
2017-12-20T03:15:14.226Z,-5.14
2017-12-20T03:16:14.228Z,-5.08
2017-12-20T03:17:14.224Z,-5.07
2017-12-20T03:18:14.226Z,-5.04
2017-12-20T03:19:14.233Z,-5.17
2017-12-20T03:20:14.235Z,-5.17
2017-12-20T03:21:14.230Z,-5.25
2017-12-20T03:22:14.238Z,-5.30
2017-12-20T03:23:14.234Z,-5.30
2017-12-20T03:24:14.236Z,-5.47
2017-12-20T03:25:14.242Z,-5.44
2017-12-20T03:26:14.240Z,-5.48
2017-12-20T03:27:14.242Z,-5.48
2017-12-20T03:28:14.248Z,-5.51
2017-12-20T03:29:14.245Z,-5.51
2017-12-20T03:30:14.246Z,-5.50
2017-12-20T03:31:14.253Z,-5.54
2017-12-20T03:32:14.253Z,-5.54
2017-12-20T03:33:14.249Z,-5.55
2017-12-20T03:34:14.257Z,-5.53
2017-12-20T03:35:14.255Z,-5.57
2017-12-20T03:36:14.259Z,-5.46
2017-12-20T03:37:14.261Z,-5.44
2017-12-20T03:38:14.264Z,-5.35
2017-12-20T03:39:14.265Z,-5.29
2017-12-20T03:40:14.260Z,-5.44
2017-12-20T03:41:14.273Z,-5.41
2017-12-20T03:42:14.264Z,-5.39
2017-12-20T03:43:14.266Z,-5.46
2017-12-20T03:44:14.269Z,-5.41
2017-12-20T03:45:14.268Z,-5.30
2017-12-20T03:46:14.271Z,-5.27
2017-12-20T03:47:14.278Z,-5.32
2017-12-20T03:48:14.273Z,-5.19
2017-12-20T03:49:14.280Z,-5.25
2017-12-20T03:50:14.278Z,-5.14
2017-12-20T03:51:14.279Z,-5.08
2017-12-20T03:52:14.281Z,-5.06
2017-12-20T03:53:14.281Z,-5.18
2017-12-20T03:54:14.284Z,-5.18
2017-12-20T03:55:14.292Z,-5.27
2017-12-20T03:56:14.294Z,-5.29
2017-12-20T03:57:14.295Z,-5.48
2017-12-20T03:58:14.291Z,-5.41
2017-12-20T03:59:14.295Z,-5.36
2017-12-20T04:00:14.295Z,-5.35
2017-12-20T04:01:14.296Z,-5.39
2017-12-20T04:02:14.304Z,-5.41
2017-12-20T04:03:14.300Z,-5.48
2017-12-20T04:04:14.300Z,-5.50
2017-12-20T04:05:14.302Z,-5.53
2017-12-20T04:06:14.306Z,-5.54
2017-12-20T04:07:14.309Z,-5.55
2017-12-20T04:08:14.307Z,-5.54
2017-12-20T04:09:14.315Z,-5.47
2017-12-20T04:10:14.318Z,-5.57
2017-12-20T04:11:14.313Z,-5.51
2017-12-20T04:12:14.319Z,-5.47
2017-12-20T04:13:14.322Z,-5.47
2017-12-20T04:14:14.318Z,-5.53
2017-12-20T04:15:14.319Z,-5.48
2017-12-20T04:16:14.322Z,-5.51
2017-12-20T04:17:14.329Z,-5.53
2017-12-20T04:18:14.326Z,-5.54
2017-12-20T04:19:14.327Z,-5.53
2017-12-20T04:20:14.327Z,-5.54
2017-12-20T04:21:14.334Z,-5.57
2017-12-20T04:22:14.339Z,-5.50
2017-12-20T04:23:14.335Z,-5.47
2017-12-20T04:24:14.340Z,-5.50
2017-12-20T04:25:14.340Z,-5.50
2017-12-20T04:26:14.344Z,-5.47
2017-12-20T04:27:14.341Z,-5.43
2017-12-20T04:28:14.342Z,-5.44
2017-12-20T04:29:14.348Z,-5.47
2017-12-20T04:30:14.351Z,-5.48
2017-12-20T04:31:14.350Z,-5.48
2017-12-20T04:32:14.358Z,-5.64
2017-12-20T04:33:14.356Z,-5.65
2017-12-20T04:34:14.352Z,-5.68
2017-12-20T04:35:14.358Z,-5.72
2017-12-20T04:36:14.368Z,-5.82
2017-12-20T04:37:14.357Z,-5.76
2017-12-20T04:38:14.360Z,-5.79
2017-12-20T04:39:14.361Z,-5.93
2017-12-20T04:40:14.362Z,-5.90
2017-12-20T04:41:14.365Z,-5.93
2017-12-20T04:42:14.373Z,-5.92
2017-12-20T04:43:14.369Z,-5.83
2017-12-20T04:44:14.373Z,-5.89
2017-12-20T04:45:14.378Z,-6.04
2017-12-20T04:46:14.377Z,-6.08
2017-12-20T04:47:14.380Z,-6.10
2017-12-20T04:48:14.383Z,-6.11
2017-12-20T04:49:14.385Z,-6.15
2017-12-20T04:50:14.383Z,-6.15
2017-12-20T04:51:14.386Z,-6.15
2017-12-20T04:52:14.388Z,-6.13
2017-12-20T04:53:14.384Z,-6.11
2017-12-20T04:54:14.390Z,-6.03
2017-12-20T04:55:14.394Z,-6.01
2017-12-20T04:56:14.396Z,-6.03
2017-12-20T04:57:14.395Z,-5.89
2017-12-20T04:58:14.391Z,-5.93
2017-12-20T04:59:14.397Z,-5.82
2017-12-20T05:00:14.394Z,-5.75
2017-12-20T05:01:14.397Z,-5.80
2017-12-20T05:02:14.398Z,-5.75
2017-12-20T05:03:14.399Z,-5.71
2017-12-20T05:04:14.402Z,-5.79
2017-12-20T05:05:14.465Z,-5.80
2017-12-20T05:06:14.404Z,-5.75
2017-12-20T05:07:14.405Z,-5.79
2017-12-20T05:08:14.405Z,-5.74
2017-12-20T05:09:14.408Z,-5.83
2017-12-20T05:10:14.415Z,-5.79
2017-12-20T05:11:14.420Z,-5.75
2017-12-20T05:12:14.417Z,-5.72
2017-12-20T05:13:14.420Z,-5.76
2017-12-20T05:14:14.412Z,-5.83
2017-12-20T05:15:14.417Z,-5.82
2017-12-20T05:16:14.417Z,-5.92
2017-12-20T05:17:14.419Z,-5.92
2017-12-20T05:18:14.425Z,-5.86
2017-12-20T05:19:14.421Z,-5.86
2017-12-20T05:20:14.425Z,-5.84
2017-12-20T05:21:14.423Z,-5.93
2017-12-20T05:22:14.424Z,-5.80
2017-12-20T05:23:14.434Z,-5.93
2017-12-20T05:24:14.435Z,-5.87
2017-12-20T05:25:14.435Z,-5.83
2017-12-20T05:26:14.434Z,-5.75
2017-12-20T05:27:14.432Z,-5.75
2017-12-20T05:28:14.432Z,-5.71
2017-12-20T05:29:14.433Z,-5.62
2017-12-20T05:30:14.435Z,-5.51
2017-12-20T05:31:14.441Z,-5.51
2017-12-20T05:32:14.444Z,-5.48
2017-12-20T05:33:14.439Z,-5.39
2017-12-20T05:34:14.441Z,-5.41
2017-12-20T05:35:14.444Z,-5.44
2017-12-20T05:36:14.452Z,-5.32
2017-12-20T05:37:14.449Z,-5.36
2017-12-20T05:38:14.451Z,-5.14
2017-12-20T05:39:14.453Z,-5.10
2017-12-20T05:40:14.452Z,-4.90
2017-12-20T05:41:14.451Z,-4.92
2017-12-20T05:42:14.451Z,-4.93
2017-12-20T05:43:14.457Z,-4.96
2017-12-20T05:44:14.452Z,-4.90
2017-12-20T05:45:14.454Z,-4.90
2017-12-20T05:46:14.455Z,-4.79
2017-12-20T05:47:14.459Z,-4.79
2017-12-20T05:48:14.457Z,-4.68
2017-12-20T05:49:14.470Z,-4.67
2017-12-20T05:50:14.466Z,-4.61
2017-12-20T05:51:14.468Z,-4.65
2017-12-20T05:52:14.471Z,-4.65
2017-12-20T05:53:14.464Z,-4.65
2017-12-20T05:54:14.466Z,-4.65
2017-12-20T05:55:14.473Z,-4.77
2017-12-20T05:56:14.479Z,-4.93
2017-12-20T05:57:14.470Z,-4.96
2017-12-20T05:58:14.471Z,-4.92
2017-12-20T05:59:14.474Z,-4.96
2017-12-20T06:00:14.482Z,-4.93
2017-12-20T06:01:14.476Z,-4.99
2017-12-20T06:02:14.484Z,-4.93
2017-12-20T06:03:14.483Z,-4.99
2017-12-20T06:04:14.479Z,-4.93
2017-12-20T06:05:14.482Z,-4.96
2017-12-20T06:06:14.488Z,-4.97
2017-12-20T06:07:14.485Z,-5.00
2017-12-20T06:08:14.492Z,-4.89
2017-12-20T06:09:14.487Z,-4.97
2017-12-20T06:10:14.493Z,-4.85
2017-12-20T06:11:14.491Z,-4.85
2017-12-20T06:12:14.492Z,-4.79
2017-12-20T06:13:14.491Z,-4.78
2017-12-20T06:14:14.500Z,-4.83
2017-12-20T06:15:14.503Z,-4.87
2017-12-20T06:16:14.508Z,-4.85
2017-12-20T06:17:14.508Z,-4.87
2017-12-20T06:18:14.501Z,-4.78
2017-12-20T06:19:14.526Z,-4.81
2017-12-20T06:20:14.508Z,-4.81
2017-12-20T06:21:14.511Z,-4.75
2017-12-20T06:22:14.514Z,-4.79
2017-12-20T06:23:14.507Z,-4.79
2017-12-20T06:24:14.509Z,-4.75
2017-12-20T06:25:14.510Z,-4.83
2017-12-20T06:26:14.518Z,-4.81
2017-12-20T06:27:14.516Z,-4.79
2017-12-20T06:28:14.516Z,-4.85
2017-12-20T06:29:14.526Z,-4.81
2017-12-20T06:30:14.526Z,-4.96
2017-12-20T06:31:14.521Z,-4.79
2017-12-20T06:32:14.521Z,-4.77
2017-12-20T06:33:14.526Z,-4.81
2017-12-20T06:34:14.525Z,-4.77
2017-12-20T06:35:14.526Z,-4.68
2017-12-20T06:36:14.534Z,-4.60
2017-12-20T06:37:14.603Z,-4.61
2017-12-20T06:38:14.532Z,-4.61
2017-12-20T06:39:14.534Z,-4.75
2017-12-20T06:40:14.540Z,-4.79
2017-12-20T06:41:14.536Z,-4.97
2017-12-20T06:42:14.541Z,-5.08
2017-12-20T06:43:14.545Z,-5.00
2017-12-20T06:44:14.546Z,-5.10
2017-12-20T06:45:14.543Z,-5.08
2017-12-20T06:46:14.551Z,-5.13
2017-12-20T06:47:14.553Z,-5.07
2017-12-20T06:48:14.554Z,-5.18
2017-12-20T06:49:14.559Z,-5.26
2017-12-20T06:50:14.556Z,-5.19
2017-12-20T06:51:14.560Z,-5.33
2017-12-20T06:52:14.561Z,-5.19
2017-12-20T06:53:14.557Z,-5.10
2017-12-20T06:54:14.564Z,-5.23
2017-12-20T06:55:14.565Z,-5.06
2017-12-20T06:56:14.564Z,-5.14
2017-12-20T06:57:14.562Z,-5.06
2017-12-20T06:58:14.569Z,-5.03
2017-12-20T06:59:14.575Z,-4.90
2017-12-20T07:00:14.572Z,-4.95
2017-12-20T07:01:14.568Z,-4.89
2017-12-20T07:02:14.578Z,-4.87
2017-12-20T07:03:14.572Z,-4.89
2017-12-20T07:04:14.579Z,-4.99
2017-12-20T07:05:14.575Z,-4.97
2017-12-20T07:06:14.585Z,-5.06
2017-12-20T07:07:14.583Z,-5.06
2017-12-20T07:08:14.579Z,-5.17
2017-12-20T07:09:14.580Z,-5.18
2017-12-20T07:10:14.588Z,-5.13
2017-12-20T07:11:14.591Z,-5.04
2017-12-20T07:12:14.586Z,-5.11
2017-12-20T07:13:14.591Z,-4.97
2017-12-20T07:14:14.588Z,-5.07
2017-12-20T07:15:14.595Z,-5.08
2017-12-20T07:16:14.594Z,-5.13
2017-12-20T07:17:14.600Z,-5.07
2017-12-20T07:18:14.597Z,-5.10
2017-12-20T07:19:14.596Z,-5.08
2017-12-20T07:20:14.606Z,-5.04
2017-12-20T07:21:14.601Z,-5.11
2017-12-20T07:22:14.600Z,-5.33
2017-12-20T07:23:14.608Z,-5.32
2017-12-20T07:24:14.611Z,-5.29
2017-12-20T07:25:14.605Z,-5.27
2017-12-20T07:26:14.615Z,-5.18
2017-12-20T07:27:14.616Z,-5.06
2017-12-20T07:28:14.615Z,-5.13
2017-12-20T07:29:14.615Z,-5.04
2017-12-20T07:30:14.617Z,-5.04
2017-12-20T07:31:14.617Z,-4.87
2017-12-20T07:32:14.624Z,-4.81
2017-12-20T07:33:14.621Z,-4.83
2017-12-20T07:34:14.623Z,-4.81
2017-12-20T07:35:14.628Z,-4.96
2017-12-20T07:36:14.622Z,-4.90
2017-12-20T07:37:14.627Z,-4.90
2017-12-20T07:38:14.623Z,-4.75
2017-12-20T07:39:14.624Z,-4.63
2017-12-20T07:40:14.625Z,-4.79
2017-12-20T07:41:14.627Z,-4.77
2017-12-20T07:42:14.632Z,-4.79
2017-12-20T07:43:14.635Z,-4.72
2017-12-20T07:44:14.630Z,-4.67
2017-12-20T07:45:14.633Z,-4.61
2017-12-20T07:46:14.633Z,-4.60
2017-12-20T07:47:14.640Z,-4.61
2017-12-20T07:48:14.635Z,-4.60
2017-12-20T07:49:14.637Z,-4.57
2017-12-20T07:50:14.637Z,-4.51
2017-12-20T07:51:14.655Z,-4.38
2017-12-20T07:52:14.646Z,-4.39
2017-12-20T07:53:14.647Z,-4.49
2017-12-20T07:54:14.649Z,-4.32
2017-12-20T07:55:14.650Z,-4.20
2017-12-20T07:56:14.646Z,-4.14
2017-12-20T07:57:14.650Z,-4.07
2017-12-20T07:58:14.649Z,-3.93
2017-12-20T07:59:14.650Z,-4.00
2017-12-20T08:00:14.653Z,-4.11
2017-12-20T08:01:14.654Z,-4.03
2017-12-20T08:02:14.659Z,-4.04
2017-12-20T08:03:14.656Z,-3.93
2017-12-20T08:04:14.663Z,-4.01
2017-12-20T08:05:14.662Z,-4.11
2017-12-20T08:06:14.669Z,-4.47
2017-12-20T08:07:14.664Z,-4.54
2017-12-20T08:08:14.671Z,-4.56
2017-12-20T08:09:14.672Z,-4.50
2017-12-20T08:10:14.675Z,-4.24
2017-12-20T08:11:14.674Z,-4.06
2017-12-20T08:12:14.683Z,-3.99
2017-12-20T08:13:14.681Z,-3.91
2017-12-20T08:14:14.682Z,-3.83
2017-12-20T08:15:14.676Z,-3.78
2017-12-20T08:16:14.676Z,-3.64
2017-12-20T08:17:14.683Z,-3.69
2017-12-20T08:18:14.688Z,-3.63
2017-12-20T08:19:14.689Z,-3.67
2017-12-20T08:20:14.689Z,-3.85
2017-12-20T08:21:14.693Z,-3.85
2017-12-20T08:22:14.689Z,-3.88
2017-12-20T08:23:14.697Z,-4.01
2017-12-20T08:24:14.693Z,-4.14
2017-12-20T08:25:14.699Z,-4.11
2017-12-20T08:26:14.707Z,-4.14
2017-12-20T08:27:14.697Z,-4.17
2017-12-20T08:28:14.711Z,-4.14
2017-12-20T08:29:14.708Z,-4.29
2017-12-20T08:30:14.711Z,-4.24
2017-12-20T08:31:14.706Z,-3.91
2017-12-20T08:32:14.708Z,-3.67
2017-12-20T08:33:14.708Z,-3.53
2017-12-20T08:34:14.719Z,-3.36
2017-12-20T08:35:14.715Z,-3.36
2017-12-20T08:36:14.719Z,-3.45
2017-12-20T08:37:14.715Z,-3.48
2017-12-20T08:38:14.719Z,-3.56
2017-12-20T08:39:14.722Z,-3.60
2017-12-20T08:40:14.729Z,-3.71
2017-12-20T08:41:14.724Z,-3.60
2017-12-20T08:42:14.731Z,-3.56
2017-12-20T08:43:14.731Z,-3.75
2017-12-20T08:44:14.738Z,-3.57
2017-12-20T08:45:14.739Z,-3.31
2017-12-20T08:46:14.741Z,-2.92
2017-12-20T08:47:14.751Z,-3.06
2017-12-20T08:48:14.744Z,-1.72
2017-12-20T08:49:14.749Z,-1.28
2017-12-20T08:50:14.744Z,-0.36
2017-12-20T08:51:14.750Z,0.60
2017-12-20T08:52:14.753Z,1.06
2017-12-20T08:53:14.760Z,1.51
2017-12-20T08:54:14.760Z,1.08
2017-12-20T08:55:14.761Z,0.02
2017-12-20T08:56:14.762Z,0.17
2017-12-20T08:57:14.764Z,0.61
2017-12-20T08:58:14.777Z,0.83
2017-12-20T08:59:14.770Z,1.06
2017-12-20T09:00:14.777Z,1.34
2017-12-20T09:01:14.781Z,1.42
2017-12-20T09:02:14.778Z,1.86
2017-12-20T09:03:14.782Z,2.00
2017-12-20T09:04:14.790Z,1.86
2017-12-20T09:05:14.788Z,1.34
2017-12-20T09:06:14.795Z,2.75
2017-12-20T09:07:14.796Z,3.65
2017-12-20T09:08:14.811Z,3.14
2017-12-20T09:09:14.804Z,2.77
2017-12-20T09:10:14.806Z,1.98
2017-12-20T09:11:14.820Z,1.16
2017-12-20T09:12:14.816Z,1.27
2017-12-20T09:13:14.819Z,0.96
2017-12-20T09:14:14.830Z,0.49
2017-12-20T09:15:14.828Z,1.05
2017-12-20T09:16:14.837Z,1.18
2017-12-20T09:17:14.844Z,1.16
2017-12-20T09:18:14.845Z,1.26
2017-12-20T09:19:14.846Z,1.09
2017-12-20T09:20:14.850Z,1.45
2017-12-20T09:21:14.859Z,1.52
2017-12-20T09:22:14.864Z,1.52
2017-12-20T09:23:14.870Z,1.84
2017-12-20T09:24:14.871Z,1.91
2017-12-20T09:25:14.876Z,1.93
2017-12-20T09:26:14.877Z,2.03
2017-12-20T09:27:14.890Z,1.77
2017-12-20T09:28:14.887Z,1.69
2017-12-20T09:29:14.898Z,1.93
2017-12-20T09:30:14.895Z,2.16
2017-12-20T09:31:14.906Z,2.17
2017-12-20T09:32:14.905Z,2.14
2017-12-20T09:33:14.912Z,2.21
2017-12-20T09:34:14.918Z,2.35
2017-12-20T09:35:14.933Z,2.56
2017-12-20T09:36:14.926Z,2.61
2017-12-20T09:37:14.938Z,2.77
2017-12-20T09:38:14.948Z,2.75
2017-12-20T09:39:14.945Z,3.03
2017-12-20T09:40:14.951Z,3.06
2017-12-20T09:41:14.963Z,3.06
2017-12-20T09:42:14.969Z,2.82
2017-12-20T09:43:14.969Z,2.63
2017-12-20T09:44:14.973Z,2.77
2017-12-20T09:45:14.978Z,2.89
2017-12-20T09:46:14.993Z,3.05
2017-12-20T09:47:14.999Z,2.78
2017-12-20T09:48:15.009Z,2.48
2017-12-20T09:49:15.007Z,3.03
2017-12-20T09:50:15.017Z,4.73
2017-12-20T09:51:15.025Z,6.15
2017-12-20T09:52:15.028Z,7.50
2017-12-20T09:53:15.039Z,6.99
2017-12-20T09:54:15.042Z,7.97
2017-12-20T09:55:15.052Z,8.73
2017-12-20T09:56:15.056Z,8.73
2017-12-20T09:57:15.057Z,8.70
2017-12-20T09:58:15.072Z,8.38
2017-12-20T09:59:15.071Z,9.71
2017-12-20T10:00:15.086Z,10.23
2017-12-20T10:01:15.084Z,8.56
2017-12-20T10:02:15.093Z,8.98
2017-12-20T10:03:15.100Z,10.73
2017-12-20T10:04:15.114Z,11.95
2017-12-20T10:05:15.121Z,12.62
2017-12-20T10:06:15.128Z,13.04
2017-12-20T10:07:15.131Z,12.95
2017-12-20T10:08:15.141Z,13.08
2017-12-20T10:09:15.151Z,11.95
2017-12-20T10:10:15.152Z,12.41
2017-12-20T10:11:15.160Z,13.36
2017-12-20T10:12:15.166Z,11.90
2017-12-20T10:13:15.181Z,10.66
2017-12-20T10:14:15.188Z,8.71
2017-12-20T10:15:15.193Z,9.72
2017-12-20T10:16:15.209Z,10.68
2017-12-20T10:17:15.213Z,11.62
2017-12-20T10:18:15.217Z,11.14
2017-12-20T10:19:15.231Z,12.14
2017-12-20T10:20:15.237Z,12.83
2017-12-20T10:21:15.246Z,12.97
2017-12-20T10:22:15.250Z,10.78
2017-12-20T10:23:15.258Z,11.10
2017-12-20T10:24:15.271Z,11.95
2017-12-20T10:25:15.281Z,12.45
2017-12-20T10:26:15.285Z,12.85
2017-12-20T10:27:15.297Z,13.12
2017-12-20T10:28:15.302Z,12.95
2017-12-20T10:29:15.321Z,13.26
2017-12-20T10:30:15.324Z,12.74
2017-12-20T10:31:15.329Z,12.35
2017-12-20T10:32:15.346Z,12.62
2017-12-20T10:33:15.355Z,12.93
2017-12-20T10:34:15.363Z,13.11
2017-12-20T10:35:15.407Z,12.96
2017-12-20T10:36:15.381Z,12.57
2017-12-20T10:37:15.387Z,12.71
2017-12-20T10:38:15.400Z,12.75
2017-12-20T10:39:15.416Z,12.82
2017-12-20T10:40:15.424Z,12.64
2017-12-20T10:41:15.438Z,12.79
2017-12-20T10:42:15.439Z,12.68
2017-12-20T10:43:15.452Z,12.56
2017-12-20T10:44:15.461Z,12.82
2017-12-20T10:45:15.476Z,12.89
2017-12-20T10:46:15.483Z,12.65
2017-12-20T10:47:15.496Z,12.31
2017-12-20T10:48:15.505Z,12.05
2017-12-20T10:49:15.515Z,12.09
2017-12-20T10:50:15.532Z,11.99
2017-12-20T10:51:15.538Z,12.05
2017-12-20T10:52:15.553Z,11.85
2017-12-20T10:53:15.560Z,11.69
2017-12-20T10:54:15.580Z,11.90
2017-12-20T10:55:15.595Z,11.76
2017-12-20T10:56:15.602Z,11.15
2017-12-20T10:57:15.613Z,11.11
2017-12-20T10:58:15.619Z,11.06
2017-12-20T10:59:15.639Z,11.17
2017-12-20T11:00:15.644Z,11.18
2017-12-20T11:01:15.660Z,11.17
2017-12-20T11:02:15.670Z,11.00
2017-12-20T11:03:15.683Z,11.02
2017-12-20T11:04:15.692Z,11.11
2017-12-20T11:05:15.711Z,11.11
2017-12-20T11:06:15.723Z,10.79
2017-12-20T11:07:15.741Z,10.86
2017-12-20T11:08:15.748Z,11.10
2017-12-20T11:09:15.767Z,10.34
2017-12-20T11:10:15.774Z,9.17
2017-12-20T11:11:15.788Z,8.71
2017-12-20T11:12:15.796Z,8.76
2017-12-20T11:13:15.782Z,8.80
2017-12-20T11:14:15.800Z,9.36
2017-12-20T11:15:15.834Z,9.74
2017-12-20T11:16:15.850Z,9.53
2017-12-20T11:17:15.858Z,9.50
2017-12-20T11:18:15.876Z,9.65
2017-12-20T11:19:15.889Z,9.89
2017-12-20T11:20:15.902Z,10.04
2017-12-20T11:21:15.908Z,9.75
2017-12-20T11:22:15.930Z,10.11
2017-12-20T11:23:15.936Z,10.38
2017-12-20T11:24:15.954Z,10.38
2017-12-20T11:25:15.968Z,9.83
2017-12-20T11:26:15.981Z,9.11
2017-12-20T11:27:15.996Z,9.29
2017-12-20T11:28:16.003Z,9.53
2017-12-20T11:29:16.017Z,9.57
2017-12-20T11:30:16.034Z,9.93
2017-12-20T11:31:16.049Z,10.26
2017-12-20T11:32:16.063Z,10.48
2017-12-20T11:33:16.075Z,11.00
2017-12-20T11:34:16.089Z,11.22
2017-12-20T11:35:16.105Z,11.52
2017-12-20T11:36:16.112Z,11.67
2017-12-20T11:37:16.126Z,11.60
2017-12-20T11:38:16.140Z,11.39
2017-12-20T11:39:16.155Z,11.17
2017-12-20T11:40:16.172Z,11.42
2017-12-20T11:41:16.188Z,11.44
2017-12-20T11:42:16.203Z,11.42
2017-12-20T11:43:16.218Z,11.02
2017-12-20T11:44:16.230Z,10.79
2017-12-20T11:45:16.244Z,10.86
2017-12-20T11:46:16.261Z,10.96
2017-12-20T11:47:16.271Z,11.00
2017-12-20T11:48:16.290Z,11.32
2017-12-20T11:49:16.301Z,11.44
2017-12-20T11:50:16.317Z,11.73
2017-12-20T11:51:16.335Z,11.85
2017-12-20T11:52:16.350Z,11.60
2017-12-20T11:53:16.368Z,11.28
2017-12-20T11:54:16.379Z,11.04
2017-12-20T11:55:16.393Z,10.81
2017-12-20T11:56:16.408Z,10.99
2017-12-20T11:57:16.426Z,10.89
2017-12-20T11:58:16.491Z,10.88
2017-12-20T11:59:16.457Z,10.96
2017-12-20T12:00:16.473Z,11.15
2017-12-20T12:01:16.483Z,10.30
2017-12-20T12:02:16.499Z,8.91
2017-12-20T12:03:16.523Z,8.18
2017-12-20T12:04:16.535Z,8.18
2017-12-20T12:05:16.549Z,8.66
2017-12-20T12:06:16.565Z,8.98
2017-12-20T12:07:16.582Z,9.02
2017-12-20T12:08:16.593Z,9.29
2017-12-20T12:09:16.614Z,9.61
2017-12-20T12:10:16.631Z,9.99
2017-12-20T12:11:16.645Z,9.54
2017-12-20T12:12:16.659Z,9.47
2017-12-20T12:13:16.736Z,9.40
2017-12-20T12:14:16.689Z,9.05
2017-12-20T12:15:16.707Z,8.94
2017-12-20T12:16:16.721Z,9.10
2017-12-20T12:17:16.737Z,9.51
2017-12-20T12:18:16.756Z,9.76
2017-12-20T12:19:16.762Z,10.15
2017-12-20T12:20:16.780Z,10.25
2017-12-20T12:21:16.799Z,10.55
2017-12-20T12:22:16.815Z,10.96
2017-12-20T12:23:16.834Z,10.84
2017-12-20T12:24:16.844Z,11.21
2017-12-20T12:25:16.865Z,11.52
2017-12-20T12:26:16.872Z,11.07
2017-12-20T12:27:16.888Z,11.10
2017-12-20T12:28:16.910Z,11.17
2017-12-20T12:29:16.928Z,11.06
2017-12-20T12:30:16.937Z,11.37
2017-12-20T12:31:16.959Z,11.72
2017-12-20T12:32:16.975Z,11.46
2017-12-20T12:33:16.985Z,10.40
2017-12-20T12:34:17.012Z,10.56
2017-12-20T12:35:17.018Z,11.09
2017-12-20T12:36:17.041Z,11.54
2017-12-20T12:37:17.053Z,11.33
2017-12-20T12:38:17.068Z,11.51
2017-12-20T12:39:17.091Z,11.67
2017-12-20T12:40:17.101Z,11.43
2017-12-20T12:41:17.118Z,11.21
2017-12-20T12:42:17.135Z,11.25
2017-12-20T12:43:17.256Z,11.37
2017-12-20T12:44:17.169Z,11.58
2017-12-20T12:45:17.185Z,11.94
2017-12-20T12:46:17.208Z,12.14
2017-12-20T12:47:17.225Z,12.49
2017-12-20T12:48:17.243Z,11.85
2017-12-20T12:49:17.258Z,11.44
2017-12-20T12:50:17.272Z,11.43
2017-12-20T12:51:17.288Z,11.44
2017-12-20T12:52:17.307Z,11.10
2017-12-20T12:53:17.329Z,9.78
2017-12-20T12:54:17.346Z,8.76
2017-12-20T12:55:17.363Z,8.98
2017-12-20T12:56:17.376Z,9.29